RU-0152 weather

Mozdok Air Base
Mozdok, Republic of North Ossetia-Alania, Russia

Public forecast

Using degrees Celsius for public forecast. Weather courtesy of forecast.io.

METAR (pilot weather report)

Closest report is Beslan Airport, 34.8 nm (64.5 km) S. Retrieved 2019/08/26 07:30 UTC (0 seconds ago):

URMO 260730Z 27004MPS 9999 SCT018 21/17 Q1022 R27/010070 NOSIG RMK QFE721/0962

TAF (pilot weather forecast)

Forecast is more than 12 hours old.

Closest forecast is Nalchik Airport, 44.9 nm (83.2 km) WSW. Retrieved 2019/07/24 06:12 UTC (1 month ago):

TAF TAF URMN 240500Z 2406/2418 07003MPS 9999 SCT030CB TEMPO 2406/2415 VRB07G12MPS 3100 -TSRA SCT009 BKN020CB